createdAt,value
2022-07-28T00:07:53.855Z,13.0
2022-07-28T00:19:53.505Z,12.9
2022-07-28T00:31:53.518Z,13.1
2022-07-28T00:43:53.547Z,13.0
2022-07-28T00:56:05.939Z,12.7
2022-07-28T01:07:53.710Z,12.1
2022-07-28T01:19:54.022Z,12.3
2022-07-28T01:31:54.091Z,12.6
2022-07-28T01:43:53.871Z,12.6
2022-07-28T01:55:53.707Z,12.1
2022-07-28T02:07:53.491Z,12.1
2022-07-28T02:19:53.496Z,12.2
2022-07-28T02:31:53.622Z,12.2
2022-07-28T02:43:53.802Z,12.3
2022-07-28T02:55:53.816Z,12.0
2022-07-28T03:07:53.748Z,11.7
2022-07-28T03:19:53.461Z,11.6
2022-07-28T03:31:54.181Z,11.9
2022-07-28T03:43:53.787Z,11.9
2022-07-28T03:55:54.186Z,11.9
2022-07-28T04:07:53.806Z,11.7
2022-07-28T04:19:53.907Z,11.6
2022-07-28T04:31:53.864Z,11.8
2022-07-28T04:43:53.713Z,11.8
2022-07-28T04:55:54.832Z,12.3
2022-07-28T05:07:53.986Z,12.4
2022-07-28T05:19:53.927Z,12.5
2022-07-28T05:31:53.977Z,12.9
2022-07-28T05:43:53.741Z,13.2
2022-07-28T05:55:59.842Z,13.6
2022-07-28T06:07:53.885Z,13.7
2022-07-28T06:19:53.810Z,14.8
2022-07-28T06:31:53.954Z,16.1
2022-07-28T06:43:53.773Z,16.5
2022-07-28T06:55:54.013Z,16.7
2022-07-28T07:07:54.602Z,17.2
2022-07-28T07:19:54.069Z,17.4
2022-07-28T07:31:54.495Z,18.6
2022-07-28T07:43:54.068Z,19.1
2022-07-28T07:55:53.511Z,19.7
2022-07-28T08:07:53.855Z,19.7
2022-07-28T08:19:54.082Z,20.3
2022-07-28T08:31:54.107Z,20.0
2022-07-28T08:43:53.802Z,21.0
2022-07-28T08:55:54.569Z,20.9
2022-07-28T09:07:54.905Z,21.4
2022-07-28T09:19:54.033Z,21.6
2022-07-28T09:31:55.800Z,21.4
2022-07-28T09:43:55.177Z,21.1
2022-07-28T09:55:53.754Z,22.2
2022-07-28T10:07:53.727Z,22.4
2022-07-28T10:19:53.672Z,23.2
2022-07-28T10:31:54.120Z,23.2
2022-07-28T10:43:53.734Z,22.9
2022-07-28T10:55:53.633Z,23.5
2022-07-28T11:07:53.798Z,23.4
2022-07-28T11:31:53.502Z,23.9
2022-07-28T11:43:53.845Z,23.8
2022-07-28T11:56:02.976Z,23.7
2022-07-28T12:07:53.743Z,23.6
2022-07-28T12:19:53.848Z,23.0
2022-07-28T12:31:53.858Z,23.8
2022-07-28T12:43:53.668Z,24.2
2022-07-28T12:55:53.678Z,23.4
2022-07-28T13:07:53.779Z,24.3
2022-07-28T13:19:53.512Z,24.1
2022-07-28T13:31:53.612Z,24.5
2022-07-28T13:43:53.726Z,23.6
2022-07-28T13:55:53.587Z,24.0
2022-07-28T14:07:53.725Z,24.1
2022-07-28T14:19:53.691Z,23.7
2022-07-28T14:31:53.597Z,24.5
2022-07-28T14:43:53.469Z,24.2
2022-07-28T14:55:53.935Z,24.1
2022-07-28T15:07:53.680Z,24.0
2022-07-28T15:19:53.770Z,24.0
2022-07-28T15:31:53.746Z,23.7
2022-07-28T15:43:53.704Z,23.7
2022-07-28T15:55:53.615Z,23.7
2022-07-28T16:07:53.577Z,23.8
2022-07-28T16:19:53.836Z,23.7
2022-07-28T16:31:53.504Z,23.3
2022-07-28T16:43:53.589Z,23.2
2022-07-28T16:55:53.481Z,23.1
2022-07-28T17:07:53.473Z,22.9
2022-07-28T17:19:53.553Z,22.9
2022-07-28T17:31:53.926Z,22.9
2022-07-28T17:43:53.769Z,22.7
2022-07-28T17:56:00.508Z,22.7
2022-07-28T18:07:57.406Z,22.4
2022-07-28T18:19:53.520Z,22.3
2022-07-28T18:31:53.672Z,22.2
2022-07-28T18:43:53.463Z,22.2
2022-07-28T18:55:53.507Z,22.0
2022-07-28T19:07:53.495Z,21.8
2022-07-28T19:19:53.688Z,21.7
2022-07-28T19:31:53.822Z,21.5
2022-07-28T19:43:53.529Z,21.3
2022-07-28T19:55:53.702Z,21.3
2022-07-28T20:07:53.427Z,21.0
2022-07-28T20:19:53.481Z,20.9
2022-07-28T20:31:54.088Z,20.5
2022-07-28T20:44:18.219Z,20.3
2022-07-28T20:55:53.453Z,20.0
2022-07-28T21:08:00.642Z,20.0
2022-07-28T21:19:53.580Z,19.8
2022-07-28T21:32:02.341Z,19.7
2022-07-28T21:43:53.444Z,18.8
2022-07-28T21:55:53.638Z,18.9
2022-07-28T22:07:53.585Z,19.1
2022-07-28T22:19:53.562Z,19.5
2022-07-28T22:31:58.871Z,19.4
2022-07-28T22:43:53.537Z,19.2
2022-07-28T22:55:53.519Z,18.9
2022-07-28T23:07:57.234Z,19.6
2022-07-28T23:19:53.516Z,19.6
2022-07-28T23:31:53.566Z,19.3
2022-07-28T23:43:53.902Z,19.3
2022-07-28T23:55:53.473Z,19.4
